createdAt,value
2023-02-02T00:01:36.016Z,95418.22
2023-02-02T00:04:04.929Z,95416.13
2023-02-02T00:06:34.086Z,95409.41
2023-02-02T00:09:03.480Z,95371.91
2023-02-02T00:11:31.297Z,95399.84
2023-02-02T00:14:00.905Z,95417.00
2023-02-02T00:16:42.321Z,95424.72
2023-02-02T00:19:12.657Z,95422.56
2023-02-02T00:21:40.655Z,95426.53
2023-02-02T00:24:09.660Z,95415.63
2023-02-02T00:26:38.533Z,95360.88
2023-02-02T00:29:08.135Z,95231.88
2023-02-02T00:31:36.394Z,95352.94
2023-02-02T00:34:05.666Z,95436.41
2023-02-02T00:36:33.531Z,95413.09
2023-02-02T00:39:01.343Z,95442.19
2023-02-02T00:41:29.185Z,95438.00
2023-02-02T00:44:16.017Z,95440.81
2023-02-02T00:46:44.505Z,95443.53
2023-02-02T00:49:13.939Z,95441.75
2023-02-02T00:51:41.849Z,95431.28
2023-02-02T00:54:09.970Z,95438.66
2023-02-02T00:56:37.858Z,95433.66
2023-02-02T00:59:05.712Z,95442.72
2023-02-02T01:01:33.652Z,95412.91
2023-02-02T01:04:01.665Z,95376.94
2023-02-02T01:06:30.970Z,95426.19
2023-02-02T01:08:58.811Z,95420.50
2023-02-02T01:11:26.728Z,95432.53
2023-02-02T01:13:54.728Z,95430.25
2023-02-02T01:16:23.455Z,95417.44
2023-02-02T01:18:51.981Z,95402.09
2023-02-02T01:21:19.867Z,95421.75
2023-02-02T01:23:49.714Z,95413.75
2023-02-02T01:26:18.161Z,95405.38
2023-02-02T01:28:46.372Z,95402.34
2023-02-02T01:31:16.171Z,95367.47
2023-02-02T01:33:44.858Z,95398.16
2023-02-02T01:36:15.415Z,95393.53
2023-02-02T01:38:43.338Z,95405.22
2023-02-02T01:41:15.150Z,95387.31
2023-02-02T01:43:57.906Z,95386.81
2023-02-02T01:46:28.294Z,95396.47
2023-02-02T01:49:03.223Z,95395.88
2023-02-02T01:51:37.642Z,95392.28
2023-02-02T01:54:09.854Z,95345.34
2023-02-02T01:56:44.414Z,95364.66
2023-02-02T01:59:15.211Z,95372.84
2023-02-02T02:01:44.909Z,95364.72
2023-02-02T02:04:13.001Z,95364.44
2023-02-02T02:06:41.016Z,95351.28
2023-02-02T02:09:09.356Z,95376.56
2023-02-02T02:11:37.765Z,95333.19
2023-02-02T02:14:30.727Z,95366.22
2023-02-02T02:17:12.813Z,95335.50
2023-02-02T02:20:38.332Z,95360.78
2023-02-02T02:23:49.329Z,95375.94
2023-02-02T02:26:41.421Z,95384.19
2023-02-02T02:29:32.829Z,95378.88
2023-02-02T02:32:15.142Z,95313.56
2023-02-02T02:34:55.015Z,95365.13
2023-02-02T02:37:34.805Z,95378.13
2023-02-02T02:40:09.937Z,95310.56
2023-02-02T02:42:41.414Z,95360.09
2023-02-02T02:45:12.596Z,95340.50
2023-02-02T02:47:43.813Z,95313.03
2023-02-02T02:50:12.870Z,95379.50
2023-02-02T02:52:42.002Z,95379.25
2023-02-02T02:55:12.043Z,95374.22
2023-02-02T02:57:52.864Z,95375.53
2023-02-02T03:00:41.063Z,95361.78
2023-02-02T03:03:21.150Z,95373.97
2023-02-02T03:05:56.211Z,95346.38
2023-02-02T03:08:30.325Z,95356.47
2023-02-02T03:11:02.286Z,95375.06
2023-02-02T03:13:30.669Z,95300.13
2023-02-02T03:15:59.056Z,95355.97
2023-02-02T03:18:30.801Z,95303.44
2023-02-02T03:20:58.787Z,95347.38
2023-02-02T03:23:27.327Z,95360.78
2023-02-02T03:25:55.801Z,95368.50
2023-02-02T03:28:25.510Z,95320.94
2023-02-02T03:30:56.130Z,95346.31
2023-02-02T03:33:24.735Z,95370.91
2023-02-02T03:35:54.097Z,95375.97
2023-02-02T03:38:21.909Z,95379.41
2023-02-02T03:40:49.775Z,95370.16
2023-02-02T03:43:21.769Z,95358.44
2023-02-02T03:45:49.746Z,95380.69
2023-02-02T03:48:17.596Z,95388.72
2023-02-02T03:50:45.517Z,95391.06
2023-02-02T03:53:14.740Z,95388.66
2023-02-02T03:55:42.592Z,95395.16
2023-02-02T03:58:10.417Z,95399.44
2023-02-02T04:00:38.289Z,95402.63
2023-02-02T04:03:06.197Z,95401.03
2023-02-02T04:05:34.289Z,95348.31
2023-02-02T04:08:02.146Z,95397.31
2023-02-02T04:10:31.410Z,95331.59
2023-02-02T04:12:59.297Z,95391.25
2023-02-02T04:15:27.358Z,95380.41
2023-02-02T04:17:55.330Z,95396.81
2023-02-02T04:20:23.503Z,95393.38
2023-02-02T04:22:51.575Z,95403.47
2023-02-02T04:25:19.425Z,95397.84
2023-02-02T04:27:48.687Z,95384.03
2023-02-02T04:30:16.748Z,95291.53
2023-02-02T04:32:44.631Z,95395.88
2023-02-02T04:35:12.519Z,95394.53
2023-02-02T04:37:40.356Z,95218.13
2023-02-02T04:40:09.741Z,95325.13
2023-02-02T04:42:37.584Z,95389.75
2023-02-02T04:45:08.169Z,95387.91
2023-02-02T04:47:36.026Z,95405.69
2023-02-02T04:50:03.888Z,95332.81
2023-02-02T04:52:31.771Z,95399.59
2023-02-02T04:54:59.579Z,95402.78
2023-02-02T04:57:27.591Z,95394.31
2023-02-02T04:59:55.473Z,95410.50
2023-02-02T05:02:24.860Z,95405.72
2023-02-02T05:04:52.694Z,95395.16
2023-02-02T05:07:20.545Z,95405.78
2023-02-02T05:09:50.515Z,95414.56
2023-02-02T05:12:18.419Z,95380.09
2023-02-02T05:14:46.296Z,95381.44
2023-02-02T05:17:14.095Z,95350.97
2023-02-02T05:19:43.601Z,95386.25
2023-02-02T05:22:11.639Z,95404.00
2023-02-02T05:24:39.602Z,95384.66
2023-02-02T05:27:07.481Z,95363.47
2023-02-02T05:29:35.379Z,95405.09
2023-02-02T05:32:03.260Z,95416.75
2023-02-02T05:34:31.105Z,95412.25
2023-02-02T05:37:00.340Z,95412.47
2023-02-02T05:39:28.176Z,95379.88
2023-02-02T05:41:56.064Z,95424.41
2023-02-02T05:44:24.011Z,95426.47
2023-02-02T05:46:51.848Z,95432.34
2023-02-02T05:49:19.669Z,95427.28
2023-02-02T05:51:51.974Z,95430.25
2023-02-02T05:54:21.368Z,95406.44
2023-02-02T05:56:50.624Z,95430.19
2023-02-02T05:59:18.532Z,95427.19
2023-02-02T06:01:47.148Z,95412.28
2023-02-02T06:04:15.734Z,95421.72
2023-02-02T06:06:43.998Z,95416.38
2023-02-02T06:09:12.019Z,95416.53
2023-02-02T06:11:41.257Z,95421.38
2023-02-02T06:14:09.918Z,95403.97
2023-02-02T06:16:38.255Z,95424.44
2023-02-02T06:19:06.065Z,95425.25
2023-02-02T06:21:33.964Z,95379.72
2023-02-02T06:24:02.288Z,95440.69
2023-02-02T06:26:30.659Z,95442.22
2023-02-02T06:29:03.225Z,95416.41
2023-02-02T06:31:31.514Z,95417.66
2023-02-02T06:34:00.565Z,95445.16
2023-02-02T06:36:29.047Z,95454.84
2023-02-02T06:38:59.186Z,95446.78
2023-02-02T06:41:27.223Z,95461.41
2023-02-02T06:43:55.540Z,95453.31
2023-02-02T06:46:24.815Z,95459.03
2023-02-02T06:48:52.828Z,95439.41
2023-02-02T06:51:21.201Z,95447.47
2023-02-02T06:53:50.085Z,95467.13
2023-02-02T06:56:18.339Z,95471.16
2023-02-02T06:58:46.280Z,95459.63
2023-02-02T07:01:15.836Z,95453.06
2023-02-02T07:03:49.063Z,95474.00
2023-02-02T07:06:19.604Z,95482.03
2023-02-02T07:09:02.248Z,95467.41
2023-02-02T07:11:34.777Z,95463.88
2023-02-02T07:14:05.687Z,95466.06
2023-02-02T07:16:33.810Z,95473.53
2023-02-02T07:19:03.059Z,95470.59
2023-02-02T07:21:36.884Z,95462.53
2023-02-02T07:24:05.713Z,95466.16
2023-02-02T07:26:36.209Z,95468.38
2023-02-02T07:29:05.024Z,95485.47
2023-02-02T07:31:35.873Z,95457.50
2023-02-02T07:34:07.277Z,95490.38
2023-02-02T07:36:35.159Z,95394.63
2023-02-02T07:39:04.788Z,95483.41
2023-02-02T07:41:36.275Z,95485.88
2023-02-02T07:44:05.105Z,95478.72
2023-02-02T07:46:33.195Z,95453.13
2023-02-02T07:49:01.170Z,95472.19
2023-02-02T07:51:30.512Z,95459.56
2023-02-02T07:53:59.461Z,95451.84
2023-02-02T07:56:28.965Z,95431.69
2023-02-02T07:58:58.383Z,95449.03
2023-02-02T08:01:31.699Z,95441.22
2023-02-02T08:04:00.834Z,95431.53
2023-02-02T08:06:32.473Z,95442.03
2023-02-02T08:09:01.242Z,95434.19
2023-02-02T08:11:30.307Z,95429.16
2023-02-02T08:14:00.462Z,95438.03
2023-02-02T08:16:32.042Z,95427.44
2023-02-02T08:19:00.567Z,95435.97
2023-02-02T08:21:28.652Z,95424.00
2023-02-02T08:24:00.042Z,95428.22
2023-02-02T08:26:30.041Z,95424.19
2023-02-02T08:29:00.101Z,95416.81
2023-02-02T08:31:30.466Z,95428.41
2023-02-02T08:33:59.004Z,95404.34
2023-02-02T08:36:28.775Z,95405.88
2023-02-02T08:38:57.326Z,95405.63
2023-02-02T08:41:26.575Z,95400.06
2023-02-02T08:43:55.513Z,95402.38
2023-02-02T08:46:24.046Z,95398.41
2023-02-02T08:48:53.384Z,95387.34
2023-02-02T08:51:21.928Z,95367.69
2023-02-02T08:53:49.806Z,95386.84
2023-02-02T08:56:20.061Z,95389.41
2023-02-02T08:58:51.430Z,95383.38
2023-02-02T09:01:21.805Z,95392.38
2023-02-02T09:03:50.305Z,95393.06
2023-02-02T09:06:20.437Z,95372.44
2023-02-02T09:08:48.753Z,95375.06
2023-02-02T09:11:18.881Z,95379.78
2023-02-02T09:13:50.089Z,95361.44
2023-02-02T09:16:19.609Z,95365.88
2023-02-02T09:18:47.665Z,95371.97
2023-02-02T09:21:18.070Z,95365.50
2023-02-02T09:23:49.133Z,95364.16
2023-02-02T09:26:19.233Z,95362.66
2023-02-02T09:28:50.555Z,95368.72
2023-02-02T09:31:19.228Z,95359.06
2023-02-02T09:33:48.042Z,95360.59
2023-02-02T09:36:17.775Z,95330.50
2023-02-02T09:38:46.232Z,95348.75
2023-02-02T09:41:29.019Z,95343.06
2023-02-02T09:44:07.541Z,95357.72
2023-02-02T09:46:47.798Z,95347.34
2023-02-02T09:49:18.626Z,95366.94
2023-02-02T09:51:50.808Z,95334.03
2023-02-02T09:54:22.859Z,95335.47
2023-02-02T09:56:55.936Z,95336.28
2023-02-02T09:59:29.425Z,95272.63
2023-02-02T10:02:02.549Z,95342.22
2023-02-02T10:04:35.879Z,95320.72
2023-02-02T10:07:11.210Z,95315.13
2023-02-02T10:09:44.403Z,95316.19
2023-02-02T10:12:25.704Z,95310.41
2023-02-02T10:14:59.233Z,95283.38
2023-02-02T10:17:38.779Z,95314.84
2023-02-02T10:20:18.911Z,95302.19
2023-02-02T10:22:49.235Z,95296.78
2023-02-02T10:25:18.358Z,95292.56
2023-02-02T10:28:05.536Z,95277.56
2023-02-02T10:30:44.514Z,95293.06
2023-02-02T10:33:21.842Z,95282.06
2023-02-02T10:35:58.570Z,95278.69
2023-02-02T10:38:41.503Z,95290.91
2023-02-02T10:41:20.480Z,95279.56
2023-02-02T10:44:05.593Z,95214.63
2023-02-02T10:46:39.133Z,95261.31
2023-02-02T10:49:24.026Z,95246.69
2023-02-02T10:51:59.878Z,95250.28
2023-02-02T10:54:57.612Z,95242.38
2023-02-02T10:57:39.773Z,95230.66
2023-02-02T11:00:16.965Z,95231.88
2023-02-02T11:02:48.280Z,95231.56
2023-02-02T11:05:39.195Z,95227.97
2023-02-02T11:08:18.416Z,95229.47
2023-02-02T11:10:48.250Z,95225.66
2023-02-02T11:13:24.668Z,95222.53
2023-02-02T11:15:52.540Z,95233.41
2023-02-02T11:18:30.162Z,95210.94
2023-02-02T11:20:58.820Z,95205.34
2023-02-02T11:23:29.275Z,95208.84
2023-02-02T11:26:05.301Z,95203.63
2023-02-02T11:28:36.342Z,95204.78
2023-02-02T11:31:04.610Z,95186.72
2023-02-02T11:33:36.117Z,95179.59
2023-02-02T11:36:06.512Z,95178.81
2023-02-02T11:38:34.683Z,95176.09
2023-02-02T11:41:05.144Z,95185.16
2023-02-02T11:43:41.383Z,95157.28
2023-02-02T11:46:20.169Z,95170.31
2023-02-02T11:49:00.799Z,95178.16
2023-02-02T11:51:30.976Z,95129.94
2023-02-02T11:54:05.747Z,95153.97
2023-02-02T11:56:35.365Z,95152.59
2023-02-02T11:59:04.180Z,95149.19
2023-02-02T12:01:34.219Z,95151.59
2023-02-02T12:04:05.553Z,95135.09
2023-02-02T12:06:37.436Z,95146.19
2023-02-02T12:09:13.238Z,95138.41
2023-02-02T12:11:54.295Z,95139.09
2023-02-02T12:14:35.827Z,95136.13
2023-02-02T12:17:20.191Z,95117.16
2023-02-02T12:20:07.837Z,95135.53
2023-02-02T12:22:51.538Z,95121.97
2023-02-02T12:25:39.962Z,95143.97
2023-02-02T12:28:23.659Z,95155.88
2023-02-02T12:31:00.723Z,95156.84
2023-02-02T12:33:36.076Z,95153.69
2023-02-02T12:36:24.698Z,95158.75
2023-02-02T12:39:09.622Z,95143.22
2023-02-02T12:42:07.305Z,95141.88
2023-02-02T12:44:47.060Z,95150.56
2023-02-02T12:47:22.823Z,95132.44
2023-02-02T12:50:23.773Z,95147.88
2023-02-02T12:53:13.428Z,95108.75
2023-02-02T12:55:45.639Z,95136.91
2023-02-02T12:58:28.356Z,95149.13
2023-02-02T13:01:12.988Z,95128.50
2023-02-02T13:03:57.899Z,95137.78
2023-02-02T13:06:55.111Z,95136.25
2023-02-02T13:09:30.960Z,95094.31
2023-02-02T13:12:04.875Z,95117.38
2023-02-02T13:14:36.961Z,95138.63
2023-02-02T13:17:12.494Z,95137.03
2023-02-02T13:19:44.223Z,95146.22
2023-02-02T13:22:17.828Z,95158.09
2023-02-02T13:24:52.205Z,95052.75
2023-02-02T13:27:22.926Z,95140.59
2023-02-02T13:29:56.807Z,95134.25
2023-02-02T13:32:29.894Z,95131.75
2023-02-02T13:35:02.957Z,95129.31
2023-02-02T13:37:37.875Z,95127.81
2023-02-02T13:40:19.668Z,95127.78
2023-02-02T13:42:56.300Z,95136.41
2023-02-02T13:45:40.988Z,95133.59
2023-02-02T13:48:22.494Z,95127.06
2023-02-02T13:51:19.220Z,95129.13
2023-02-02T13:54:12.441Z,95134.03
2023-02-02T13:56:52.174Z,95135.56
2023-02-02T13:59:35.357Z,95139.47
2023-02-02T14:02:07.470Z,95132.78
2023-02-02T14:04:35.654Z,95140.31
2023-02-02T14:07:06.916Z,95144.84
2023-02-02T14:09:37.197Z,95147.50
2023-02-02T14:12:08.805Z,95137.63
2023-02-02T14:14:39.898Z,95139.91
2023-02-02T14:17:16.519Z,95143.78
2023-02-02T14:19:58.306Z,95150.78
2023-02-02T14:22:44.649Z,95143.34
2023-02-02T14:25:54.159Z,95152.06
2023-02-02T14:28:47.003Z,95163.25
2023-02-02T14:31:54.285Z,95157.91
2023-02-02T14:34:33.814Z,95172.66
2023-02-02T14:37:47.310Z,95206.38
2023-02-02T14:40:33.369Z,95213.13
2023-02-02T14:43:31.685Z,95205.91
2023-02-02T14:46:24.462Z,95236.22
2023-02-02T14:49:17.558Z,95259.97
2023-02-02T14:51:50.516Z,95246.53
2023-02-02T14:54:26.406Z,95226.25
2023-02-02T14:56:59.362Z,95292.41
2023-02-02T14:59:31.992Z,95321.84
2023-02-02T15:02:15.097Z,95324.75
2023-02-02T15:04:43.695Z,95253.69
2023-02-02T15:07:38.159Z,95321.50
2023-02-02T15:10:06.803Z,95331.81
2023-02-02T15:12:38.257Z,95335.56
2023-02-02T15:15:17.558Z,95345.81
2023-02-02T15:18:01.075Z,95364.09
2023-02-02T15:20:33.321Z,95348.13
2023-02-02T15:23:05.881Z,95376.59
2023-02-02T15:25:39.784Z,95395.22
2023-02-02T15:28:15.069Z,95400.41
2023-02-02T15:30:46.394Z,95383.56
2023-02-02T15:33:32.597Z,95383.69
2023-02-02T15:36:04.769Z,95398.91
2023-02-02T15:38:37.795Z,95321.22
2023-02-02T15:41:09.196Z,95406.63
2023-02-02T15:43:37.643Z,95405.66
2023-02-02T15:46:08.614Z,95411.03
2023-02-02T15:48:38.130Z,95416.91
2023-02-02T15:51:15.415Z,95430.31
2023-02-02T15:53:52.003Z,95429.53
2023-02-02T15:56:31.828Z,95438.56
2023-02-02T15:59:01.667Z,95432.19
2023-02-02T16:01:34.908Z,95448.44
2023-02-02T16:04:16.413Z,95457.97
2023-02-02T16:06:45.194Z,95467.84
2023-02-02T16:09:24.047Z,95439.94
2023-02-02T16:11:53.188Z,95445.31
2023-02-02T16:14:21.825Z,95460.19
2023-02-02T16:16:50.493Z,95461.81
2023-02-02T16:19:22.707Z,95479.38
2023-02-02T16:21:55.188Z,95486.78
2023-02-02T16:24:26.186Z,95487.09
2023-02-02T16:26:58.844Z,95484.97
2023-02-02T16:29:28.227Z,95492.41
2023-02-02T16:31:57.139Z,95471.66
2023-02-02T16:34:47.507Z,95482.84
2023-02-02T16:37:17.987Z,95480.19
2023-02-02T16:39:45.977Z,95482.88
2023-02-02T16:42:25.562Z,95470.09
2023-02-02T16:44:54.557Z,95485.50
2023-02-02T16:47:39.254Z,95496.13
2023-02-02T16:50:35.374Z,95505.69
2023-02-02T16:53:04.872Z,95496.66
2023-02-02T16:55:49.154Z,95492.09
2023-02-02T16:58:22.727Z,95502.22
2023-02-02T17:01:18.369Z,95500.88
2023-02-02T17:03:52.453Z,95516.28
2023-02-02T17:06:41.642Z,95495.25
2023-02-02T17:09:27.772Z,95495.84
2023-02-02T17:11:58.231Z,95491.34
2023-02-02T17:14:32.402Z,95505.69
2023-02-02T17:17:05.514Z,95505.16
2023-02-02T17:19:33.886Z,95516.84
2023-02-02T17:22:06.320Z,95510.25
2023-02-02T17:24:34.791Z,95507.53
2023-02-02T17:27:03.602Z,95489.75
2023-02-02T17:29:35.727Z,95475.94
2023-02-02T17:32:03.642Z,95486.34
2023-02-02T17:34:31.836Z,95491.91
2023-02-02T17:37:00.793Z,95491.38
2023-02-02T17:39:30.205Z,95491.13
2023-02-02T17:41:58.413Z,95503.88
2023-02-02T17:44:27.405Z,95507.34
2023-02-02T17:46:55.617Z,95511.06
2023-02-02T17:49:24.486Z,95511.34
2023-02-02T17:51:52.643Z,95509.22
2023-02-02T17:54:20.517Z,95511.09
2023-02-02T17:56:49.911Z,95506.28
2023-02-02T17:59:17.949Z,95511.09
2023-02-02T18:01:45.846Z,95511.06
2023-02-02T18:04:15.595Z,95514.25
2023-02-02T18:06:43.549Z,95518.25
2023-02-02T18:09:11.595Z,95527.03
2023-02-02T18:11:42.101Z,95523.31
2023-02-02T18:14:12.140Z,95519.34
2023-02-02T18:16:40.056Z,95517.22
2023-02-02T18:19:07.985Z,95516.13
2023-02-02T18:21:35.918Z,95516.41
2023-02-02T18:24:04.043Z,95524.38
2023-02-02T18:26:34.584Z,95514.84
2023-02-02T18:29:02.680Z,95521.72
2023-02-02T18:31:32.213Z,95529.97
2023-02-02T18:34:00.366Z,95530.25
2023-02-02T18:36:28.299Z,95537.66
2023-02-02T18:38:58.314Z,95534.22
2023-02-02T18:41:26.335Z,95533.44
2023-02-02T18:43:55.722Z,95534.47
2023-02-02T18:46:23.823Z,95537.41
2023-02-02T18:48:53.157Z,95540.88
2023-02-02T18:51:22.119Z,95546.16
2023-02-02T18:53:50.090Z,95547.75
2023-02-02T18:56:18.264Z,95550.41
2023-02-02T18:58:46.334Z,95550.66
2023-02-02T19:01:16.539Z,95554.13
2023-02-02T19:03:48.770Z,95556.25
2023-02-02T19:06:36.698Z,95558.63
2023-02-02T19:09:04.955Z,95565.56
2023-02-02T19:11:35.930Z,95572.72
2023-02-02T19:14:07.087Z,95563.94
2023-02-02T19:16:35.320Z,95567.94
2023-02-02T19:19:12.940Z,95556.78
2023-02-02T19:21:42.372Z,95558.38
2023-02-02T19:24:13.206Z,95566.59
2023-02-02T19:26:46.042Z,95563.72
2023-02-02T19:29:18.316Z,95563.44
2023-02-02T19:31:47.002Z,95559.44
2023-02-02T19:34:19.298Z,95572.47
2023-02-02T19:36:51.162Z,95567.16
2023-02-02T19:39:21.305Z,95576.97
2023-02-02T19:41:49.268Z,95570.88
2023-02-02T19:44:20.324Z,95582.03
2023-02-02T19:46:50.613Z,95573.25
2023-02-02T19:49:26.180Z,95565.78
2023-02-02T19:51:56.705Z,95553.03
2023-02-02T19:54:33.111Z,95575.91
2023-02-02T19:57:02.954Z,95565.78
2023-02-02T19:59:35.526Z,95561.50
2023-02-02T20:02:39.300Z,95571.84
2023-02-02T20:05:19.766Z,95582.19
2023-02-02T20:07:53.267Z,95579.00
2023-02-02T20:10:23.858Z,95575.81
2023-02-02T20:12:52.876Z,95574.97
2023-02-02T20:15:28.568Z,95546.56
2023-02-02T20:17:59.025Z,95498.25
2023-02-02T20:20:29.442Z,95551.81
2023-02-02T20:22:58.889Z,95553.41
2023-02-02T20:25:29.272Z,95544.63
2023-02-02T20:27:59.037Z,95545.94
2023-02-02T20:30:30.975Z,95541.91
2023-02-02T20:33:01.597Z,95539.75
2023-02-02T20:35:37.786Z,95556.00
2023-02-02T20:38:19.262Z,95553.84
2023-02-02T20:40:47.166Z,95551.69
2023-02-02T20:43:16.003Z,95528.56
2023-02-02T20:45:44.037Z,95544.16
2023-02-02T20:48:12.556Z,95533.03
2023-02-02T20:50:40.578Z,95542.38
2023-02-02T20:53:08.871Z,95545.06
2023-02-02T20:55:40.138Z,95539.44
2023-02-02T20:58:09.852Z,95546.91
2023-02-02T21:00:38.051Z,95529.38
2023-02-02T21:03:06.052Z,95534.41
2023-02-02T21:05:33.991Z,95539.44
2023-02-02T21:08:02.003Z,95547.19
2023-02-02T21:10:29.876Z,95541.03
2023-02-02T21:12:59.142Z,95544.72
2023-02-02T21:15:27.243Z,95485.38
2023-02-02T21:17:57.457Z,95541.63
2023-02-02T21:20:28.142Z,95556.19
2023-02-02T21:22:56.925Z,95551.16
2023-02-02T21:25:24.940Z,95555.69
2023-02-02T21:27:52.891Z,95542.91
2023-02-02T21:30:22.416Z,95538.41
2023-02-02T21:32:51.305Z,95524.06
2023-02-02T21:35:19.348Z,95407.38
2023-02-02T21:37:51.338Z,95536.78
2023-02-02T21:40:27.982Z,95536.03
2023-02-02T21:42:56.391Z,95537.38
2023-02-02T21:45:35.428Z,95553.25
2023-02-02T21:48:06.843Z,95558.03
2023-02-02T21:50:37.848Z,95533.88
2023-02-02T21:53:19.979Z,95553.22
2023-02-02T21:55:52.741Z,95570.50
2023-02-02T21:58:24.980Z,95549.53
2023-02-02T22:00:58.534Z,95563.31
2023-02-02T22:03:35.331Z,95561.97
2023-02-02T22:06:19.540Z,95547.94
2023-02-02T22:08:47.625Z,95585.59
2023-02-02T22:11:29.414Z,95587.22
2023-02-02T22:14:03.042Z,95582.13
2023-02-02T22:16:41.338Z,95558.78
2023-02-02T22:19:25.195Z,95555.25
2023-02-02T22:21:54.063Z,95559.19
2023-02-02T22:24:22.304Z,95561.31
2023-02-02T22:26:50.668Z,95558.78
2023-02-02T22:29:21.804Z,95563.25
2023-02-02T22:31:51.143Z,95570.13
2023-02-02T22:34:19.077Z,95573.34
2023-02-02T22:36:47.056Z,95578.66
2023-02-02T22:39:15.212Z,95565.09
2023-02-02T22:41:44.115Z,95562.94
2023-02-02T22:44:12.016Z,95566.41
2023-02-02T22:46:39.966Z,95561.34
2023-02-02T22:49:11.851Z,95543.06
2023-02-02T22:51:39.719Z,95526.22
2023-02-02T22:54:07.586Z,95534.97
2023-02-02T22:56:35.483Z,95534.91
2023-02-02T22:59:03.510Z,95522.72
2023-02-02T23:01:31.382Z,95516.03
2023-02-02T23:03:59.295Z,95524.81
2023-02-02T23:06:28.621Z,95513.94
2023-02-02T23:08:56.729Z,95529.03
2023-02-02T23:11:24.584Z,95520.03
2023-02-02T23:13:52.521Z,95526.34
2023-02-02T23:16:20.407Z,95537.50
2023-02-02T23:18:49.362Z,95546.88
2023-02-02T23:21:17.503Z,95537.25
2023-02-02T23:23:46.851Z,95533.00
2023-02-02T23:26:14.742Z,95532.19
2023-02-02T23:28:42.652Z,95532.19
2023-02-02T23:31:10.723Z,95472.78
2023-02-02T23:33:38.631Z,95540.44
2023-02-02T23:36:07.108Z,95543.91
2023-02-02T23:38:35.055Z,95490.31
2023-02-02T23:41:04.631Z,95532.47
2023-02-02T23:43:32.568Z,95517.06
2023-02-02T23:46:01.736Z,95530.34
2023-02-02T23:48:30.237Z,95527.19
2023-02-02T23:50:58.303Z,95543.91
2023-02-02T23:53:26.270Z,95544.78
2023-02-02T23:55:54.219Z,95539.66
2023-02-02T23:58:23.463Z,95532.53
